Time;durP1;ratioP1;P1;durP2;ratioP2;P2;SDS_P1;SDS_P2;PMS_P1;PMS_P2;Temp;Humidity;BMP_temperature;BMP_pressure;BME280_temperature;BME280_humidity;BME280_pressure;Samples;Min_cycle;Max_cycle;Signal;HPM_P1;HPM_P2
2023/09/20 00:00:40;;;;;;;0.10;0.10;;;;;;;16.27;100.00;100755.75;5115537;28;20463;-43
2023/09/20 00:03:06;;;;;;;0.20;0.20;;;;;;;16.22;100.00;100749.66;5114947;28;20027;-44
2023/09/20 00:05:32;;;;;;;0.10;0.10;;;;;;;16.16;100.00;100750.47;5114907;28;20443;-44
2023/09/20 00:07:58;;;;;;;0.10;0.10;;;;;;;16.13;100.00;100755.69;5114458;28;20035;-45
2023/09/20 00:10:24;;;;;;;0.10;0.10;;;;;;;16.06;100.00;100744.38;5114775;28;20370;-44
2023/09/20 00:12:50;;;;;;;0.10;0.10;;;;;;;16.06;100.00;100749.59;5115369;28;20019;-44
2023/09/20 00:15:16;;;;;;;0.00;0.00;;;;;;;16.03;100.00;100744.34;5114011;28;20161;-42
2023/09/20 00:17:41;;;;;;;0.10;0.10;;;;;;;16.03;100.00;100744.34;5115046;28;20036;-40
2023/09/20 00:20:13;;;;;;;0.10;0.10;;;;;;;16.04;100.00;100751.28;5115241;28;20024;-41
2023/09/20 00:22:43;;;;;;;0.10;0.10;;;;;;;16.01;100.00;100746.09;5114182;28;20454;-42
2023/09/20 00:25:10;;;;;;;0.10;0.10;;;;;;;15.95;100.00;100740.84;5114812;28;20378;-44
2023/09/20 00:27:38;;;;;;;0.10;0.10;;;;;;;15.88;100.00;100742.56;5114507;28;20531;-41
2023/09/20 00:30:06;;;;;;;0.10;0.10;;;;;;;15.80;100.00;100737.28;5114284;28;20019;-44
2023/09/20 00:32:31;;;;;;;0.10;0.10;;;;;;;15.77;100.00;100736.38;5114557;28;20035;-43
2023/09/20 00:34:56;;;;;;;0.10;0.10;;;;;;;15.70;100.00;100734.59;5114741;28;20011;-41
2023/09/20 00:37:22;;;;;;;0.10;0.10;;;;;;;15.64;100.00;100735.44;5113531;28;20043;-44
2023/09/20 00:39:47;;;;;;;0.10;0.10;;;;;;;15.60;100.00;100738.88;5113976;28;20034;-41
2023/09/20 00:42:12;;;;;;;0.10;0.10;;;;;;;15.57;100.00;100738.81;5114212;28;20051;-39
2023/09/20 00:44:38;;;;;;;0.15;0.15;;;;;;;15.55;100.00;100740.56;5113845;28;20102;-41
2023/09/20 00:47:04;;;;;;;0.10;0.10;;;;;;;15.55;100.00;100740.56;5114544;28;20054;-41
2023/09/20 00:49:31;;;;;;;0.10;0.10;;;;;;;15.53;100.00;100732.75;5114210;28;20474;-45
2023/09/20 00:51:56;;;;;;;0.10;0.10;;;;;;;15.51;100.00;100738.81;5113591;28;20047;-42
2023/09/20 00:54:22;;;;;;;0.10;0.10;;;;;;;15.51;100.00;100741.41;5114130;28;20464;-43
2023/09/20 00:56:49;;;;;;;0.10;0.10;;;;;;;15.50;100.00;100737.91;5114201;28;20116;-42
2023/09/20 00:59:15;;;;;;;0.10;0.10;;;;;;;15.50;100.00;100735.31;5113415;28;20115;-39
2023/09/20 01:01:41;;;;;;;0.10;0.10;;;;;;;15.54;100.00;100733.63;5114320;28;20043;-43
2023/09/20 01:04:07;;;;;;;0.10;0.10;;;;;;;15.58;100.00;100730.19;5113650;28;20035;-40
2023/09/20 01:06:33;;;;;;;0.10;0.10;;;;;;;15.63;100.00;100737.16;5113767;28;20382;-40
2023/09/20 01:08:58;;;;;;;0.08;0.08;;;;;;;15.67;100.00;100740.63;5114146;28;20059;-42
2023/09/20 01:11:25;;;;;;;0.10;0.10;;;;;;;15.70;100.00;100737.19;5113163;28;20027;-40
2023/09/20 01:13:52;;;;;;;0.10;0.10;;;;;;;15.68;100.00;100737.19;5114160;28;20049;-40
2023/09/20 01:16:17;;;;;;;0.10;0.10;;;;;;;15.66;100.00;100736.31;5113497;28;20024;-40
2023/09/20 01:18:45;;;;;;;0.10;0.10;;;;;;;15.68;100.00;100737.19;5113292;28;20095;-40
2023/09/20 01:21:14;;;;;;;0.10;0.10;;;;;;;15.68;100.00;100725.94;5113806;28;20098;-40
2023/09/20 01:23:42;;;;;;;0.10;0.10;;;;;;;15.71;100.00;100732.03;5114077;28;20026;-42
2023/09/20 01:26:09;;;;;;;0.10;0.10;;;;;;;15.65;100.00;100726.78;5113132;28;20068;-43
2023/09/20 01:28:35;;;;;;;0.10;0.10;;;;;;;15.62;100.00;100721.53;5113642;28;20023;-44
2023/09/20 01:31:04;;;;;;;0.10;0.10;;;;;;;15.56;100.00;100717.19;5113793;28;20023;-43
2023/09/20 01:33:30;;;;;;;0.10;0.10;;;;;;;15.55;100.00;100714.59;5112467;28;20020;-43
2023/09/20 01:35:55;;;;;;;0.10;0.10;;;;;;;15.50;100.00;100711.94;5113722;28;20370;-43
2023/09/20 01:38:20;;;;;;;0.10;0.10;;;;;;;15.47;100.00;100711.94;5113185;28;20024;-44
2023/09/20 01:40:46;;;;;;;0.10;0.10;;;;;;;15.46;100.00;100705.00;5112908;28;20093;-42
2023/09/20 01:43:13;;;;;;;0.10;0.10;;;;;;;15.48;100.00;100698.97;5113440;28;20019;-39
2023/09/20 01:45:42;;;;;;;0.10;0.10;;;;;;;15.47;100.00;100698.94;5113511;28;20108;-43
2023/09/20 01:48:10;;;;;;;0.10;0.10;;;;;;;15.46;100.00;100697.22;5112662;28;20165;-44
2023/09/20 01:50:41;;;;;;;0.00;0.00;;;;;;;15.45;100.00;100696.34;5113377;28;20028;-41
2023/09/20 01:53:10;;;;;;;0.10;0.10;;;;;;;15.44;100.00;100698.91;5113459;28;20164;-43
2023/09/20 01:55:42;;;;;;;0.10;0.10;;;;;;;15.43;100.00;100689.41;5112218;28;20066;-42
2023/09/20 01:58:07;;;;;;;0.10;0.10;;;;;;;15.43;100.00;100684.22;5113480;28;20027;-45
2023/09/20 02:00:40;;;;;;;0.10;0.10;;;;;;;15.44;100.00;100692.00;5112255;28;20019;-41
2023/09/20 02:03:18;;;;;;;0.10;0.10;;;;;;;15.44;100.00;100681.63;5113355;28;20075;-43
2023/09/20 02:05:47;;;;;;;0.10;0.10;;;;;;;15.47;100.00;100680.78;5113488;28;20080;-45
2023/09/20 02:08:12;;;;;;;0.10;0.10;;;;;;;15.45;100.00;100670.38;5112195;28;20020;-41
2023/09/20 02:10:38;;;;;;;0.10;0.10;;;;;;;15.46;100.00;100677.28;5113213;28;20217;-41
2023/09/20 02:13:03;;;;;;;0.10;0.10;;;;;;;15.44;100.00;100666.03;5113135;28;20103;-41
2023/09/20 02:15:30;;;;;;;0.10;0.10;;;;;;;15.50;100.00;100659.16;5111998;28;20039;-40
2023/09/20 02:17:55;;;;;;;0.10;0.10;;;;;;;15.53;100.00;100659.16;5113301;28;20063;-44
2023/09/20 02:20:23;;;;;;;0.10;0.10;;;;;;;15.58;100.00;100660.03;5113033;28;20099;-44
2023/09/20 02:22:53;;;;;;;0.10;0.10;;;;;;;15.62;100.00;100665.28;5112455;28;20077;-44
2023/09/20 02:25:24;;;;;;;0.10;0.10;;;;;;;15.63;100.00;100661.81;5112722;28;20516;-40
2023/09/20 02:27:54;;;;;;;0.10;0.10;;;;;;;15.70;100.00;100661.84;5113032;28;20404;-45
2023/09/20 02:30:24;;;;;;;0.10;0.10;;;;;;;15.74;100.00;100643.69;5112097;28;20031;-44
2023/09/20 02:32:51;;;;;;;0.10;0.10;;;;;;;15.75;100.00;100658.44;5113023;28;20495;-45
2023/09/20 02:35:17;;;;;;;0.10;0.10;;;;;;;15.77;100.00;100648.88;5112666;28;20391;-40
2023/09/20 02:37:43;;;;;;;0.10;0.10;;;;;;;15.76;100.00;100657.56;5112115;28;20024;-42
2023/09/20 02:40:13;;;;;;;0.10;0.10;;;;;;;15.77;100.00;100654.09;5112952;28;20044;-43
2023/09/20 02:42:47;;;;;;;0.10;0.10;;;;;;;15.75;100.00;100653.22;5093955;28;20081;-43
2023/09/20 02:45:13;;;;;;;0.10;0.10;;;;;;;15.78;100.00;100644.56;5112806;28;20031;-43
2023/09/20 02:47:40;;;;;;;0.10;0.10;;;;;;;15.73;100.00;100644.53;5112925;28;20043;-42
2023/09/20 02:50:07;;;;;;;0.10;0.10;;;;;;;15.77;100.00;100648.88;5112141;28;20031;-42
2023/09/20 02:52:34;;;;;;;0.10;0.10;;;;;;;15.76;100.00;100647.19;5112641;28;20048;-42
2023/09/20 02:55:07;;;;;;;0.10;0.10;;;;;;;15.78;100.00;100639.38;5112703;28;20032;-42
2023/09/20 02:57:39;;;;;;;0.10;0.10;;;;;;;15.79;100.00;100641.97;5111526;28;20116;-42
2023/09/20 03:00:16;;;;;;;0.10;0.10;;;;;;;15.76;100.00;100636.78;5112891;28;20081;-43
2023/09/20 03:02:46;;;;;;;0.10;0.10;;;;;;;15.74;100.00;100638.50;5112808;28;20023;-42
2023/09/20 03:05:33;;;;;;;0.10;0.10;;;;;;;15.75;100.00;100635.03;5114874;28;20501;-43
2023/09/20 03:08:01;;;;;;;0.10;0.10;;;;;;;15.76;100.00;100629.00;5116339;28;20193;-44
2023/09/20 03:10:28;;;;;;;0.20;0.20;;;;;;;15.74;100.00;100633.28;5116153;28;20027;-41
2023/09/20 03:12:55;;;;;;;0.10;0.10;;;;;;;15.75;100.00;100627.25;5115730;28;20043;-44
2023/09/20 03:15:23;;;;;;;0.10;0.10;;;;;;;15.73;100.00;100626.34;5116051;28;20020;-40
2023/09/20 03:17:52;;;;;;;0.10;0.10;;;;;;;15.74;100.00;100630.69;5115272;28;20055;-44
2023/09/20 03:20:23;;;;;;;0.10;0.10;;;;;;;15.75;100.00;100624.66;5115796;28;20074;-44
2023/09/20 03:22:53;;;;;;;0.10;0.10;;;;;;;15.76;100.00;100615.09;5116293;28;20074;-40
2023/09/20 03:25:22;;;;;;;0.10;0.10;;;;;;;15.70;100.00;100607.28;5115067;28;20119;-43
2023/09/20 03:27:48;;;;;;;0.10;0.10;;;;;;;15.68;100.00;100607.28;5116071;28;20028;-41
2023/09/20 03:30:14;;;;;;;0.10;0.10;;;;;;;15.65;100.00;100607.28;5115622;28;20390;-42
2023/09/20 03:32:42;;;;;;;0.10;0.10;;;;;;;15.58;100.00;100601.19;5115007;28;20034;-41
2023/09/20 03:35:10;;;;;;;0.03;0.03;;;;;;;15.56;100.00;100610.69;5116134;28;20023;-40
2023/09/20 03:37:38;;;;;;;0.10;0.10;;;;;;;15.53;100.00;100617.59;5115601;28;20111;-44
2023/09/20 03:40:06;;;;;;;0.10;0.10;;;;;;;15.47;100.00;100608.91;5114896;28;20023;-43
2023/09/20 03:42:32;;;;;;;0.10;0.10;;;;;;;15.47;100.00;100624.50;5115520;28;20039;-43
2023/09/20 03:44:58;;;;;;;0.10;0.10;;;;;;;15.44;100.00;100616.69;5115632;28;20020;-40
2023/09/20 03:47:28;;;;;;;0.10;0.10;;;;;;;15.36;100.00;100626.13;5114833;28;20062;-43
2023/09/20 03:49:53;;;;;;;0.10;0.10;;;;;;;15.31;100.00;100620.94;5115687;28;20015;-43
2023/09/20 03:52:18;;;;;;;0.10;0.10;;;;;;;15.34;100.00;100620.09;5115183;28;20024;-45
2023/09/20 03:54:49;;;;;;;0.03;0.03;;;;;;;15.29;100.00;100625.25;5114691;28;20035;-41
2023/09/20 03:57:15;;;;;;;0.10;0.10;;;;;;;15.23;100.00;100613.97;5114921;28;20114;-40
2023/09/20 03:59:41;;;;;;;0.10;0.10;;;;;;;15.21;100.00;100615.66;5115523;28;20020;-43
2023/09/20 04:02:11;;;;;;;0.10;0.10;;;;;;;15.21;100.00;100623.44;5114813;28;20020;-44
2023/09/20 04:04:37;;;;;;;0.10;0.10;;;;;;;15.14;100.00;100613.03;5115589;28;20135;-43
2023/09/20 04:07:04;;;;;;;0.10;0.10;;;;;;;15.11;100.00;100617.34;5114625;28;20032;-40
2023/09/20 04:09:32;;;;;;;0.10;0.10;;;;;;;15.11;100.00;100619.94;5114986;28;20028;-41
2023/09/20 04:11:57;;;;;;;0.10;0.10;;;;;;;15.05;100.00;100619.88;5115132;28;20027;-43
2023/09/20 04:14:23;;;;;;;0.10;0.10;;;;;;;15.04;100.00;100612.94;5114306;28;20019;-43
2023/09/20 04:16:49;;;;;;;0.10;0.10;;;;;;;14.99;100.00;100615.53;5115197;28;20110;-43
2023/09/20 04:19:14;;;;;;;0.10;0.10;;;;;;;14.92;100.00;100609.41;5114871;28;20089;-45
2023/09/20 04:21:40;;;;;;;0.10;0.10;;;;;;;14.91;100.00;100612.88;5114194;28;20048;-40
2023/09/20 04:24:06;;;;;;;0.10;0.10;;;;;;;14.86;100.00;100598.09;5115033;28;20484;-41
2023/09/20 04:26:32;;;;;;;0.10;0.10;;;;;;;14.84;100.00;100599.84;5114576;28;20028;-44
2023/09/20 04:28:58;;;;;;;0.10;0.10;;;;;;;14.79;100.00;100594.59;5114216;28;20110;-43
2023/09/20 04:31:23;;;;;;;0.10;0.10;;;;;;;14.76;100.00;100595.44;5114639;28;20012;-43
2023/09/20 04:33:48;;;;;;;0.10;0.10;;;;;;;14.71;100.00;100578.97;5114782;28;20383;-43
2023/09/20 04:36:14;;;;;;;0.10;0.10;;;;;;;14.69;100.00;100588.44;5113536;28;20035;-44
2023/09/20 04:38:41;;;;;;;0.05;0.05;;;;;;;14.68;100.00;100576.38;5114654;28;20382;-44
2023/09/20 04:41:11;;;;;;;0.03;0.03;;;;;;;14.69;100.00;100578.06;5114432;28;20036;-44
2023/09/20 04:43:38;;;;;;;0.10;0.10;;;;;;;14.68;100.00;100581.56;5113994;28;20027;-43
2023/09/20 04:46:04;;;;;;;0.10;0.10;;;;;;;14.65;100.00;100572.03;5114692;28;20047;-44
2023/09/20 04:48:30;;;;;;;0.10;0.10;;;;;;;14.62;100.00;100584.91;5114304;28;20051;-44
2023/09/20 04:50:55;;;;;;;0.10;0.10;;;;;;;14.56;100.00;100584.00;5113737;28;20509;-43
2023/09/20 04:53:21;;;;;;;0.10;0.10;;;;;;;14.59;100.00;100581.41;5113992;28;20024;-45
2023/09/20 04:55:47;;;;;;;0.10;0.10;;;;;;;14.60;100.00;100585.75;5114000;28;20044;-42
2023/09/20 04:58:12;;;;;;;0.10;0.10;;;;;;;14.61;100.00;100590.09;5113281;28;20027;-42
2023/09/20 05:00:37;;;;;;;0.10;0.10;;;;;;;14.60;100.00;100585.75;5114297;28;20098;-40
2023/09/20 05:03:03;;;;;;;0.10;0.10;;;;;;;14.56;100.00;100587.44;5114265;28;20077;-44
2023/09/20 05:05:29;;;;;;;0.10;0.10;;;;;;;14.54;100.00;100578.78;5113045;28;20066;-40
2023/09/20 05:07:57;;;;;;;0.10;0.10;;;;;;;14.55;100.00;100580.53;5114003;28;20039;-40
2023/09/20 05:10:23;;;;;;;;;;;;;;;14.61;100.00;100587.50;5113120;28;20031;-45
2023/09/20 05:12:48;;;;;;;0.10;0.10;;;;;;;14.46;100.00;100573.53;5114054;28;19911;-44
2023/09/20 05:15:13;;;;;;;0.10;0.10;;;;;;;14.44;100.00;100583.00;5113739;28;20064;-40
2023/09/20 05:17:39;;;;;;;0.10;0.10;;;;;;;14.44;100.00;100588.19;5112989;28;20390;-45
2023/09/20 05:20:06;;;;;;;0.10;0.10;;;;;;;14.41;100.00;100585.59;5113997;28;20032;-43
2023/09/20 05:22:33;;;;;;;0.10;0.10;;;;;;;14.42;100.00;100584.75;5113697;28;20059;-45
2023/09/20 05:24:58;;;;;;;0.10;0.10;;;;;;;14.42;100.00;100576.97;5112912;28;20022;-45
2023/09/20 05:27:23;;;;;;;0.10;0.10;;;;;;;14.43;100.00;100583.88;5113147;28;20037;-44
2023/09/20 05:29:50;;;;;;;0.10;0.10;;;;;;;14.45;100.00;100571.78;5113557;28;20069;-42
2023/09/20 05:32:16;;;;;;;0.20;0.20;;;;;;;14.44;100.00;100576.97;5112600;28;20103;-44
2023/09/20 05:34:42;;;;;;;0.10;0.10;;;;;;;14.44;100.00;100574.38;5113651;28;20102;-45
2023/09/20 05:37:08;;;;;;;0.10;0.10;;;;;;;14.44;100.00;100576.97;5113621;28;20035;-41
2023/09/20 05:39:34;;;;;;;0.10;0.10;;;;;;;14.42;100.00;100574.38;5112447;28;20032;-42
2023/09/20 05:42:01;;;;;;;0.10;0.10;;;;;;;14.48;100.00;100566.63;5113756;28;20024;-43
2023/09/20 05:44:30;;;;;;;0.20;0.20;;;;;;;14.50;100.00;100569.25;5113116;28;20374;-44
2023/09/20 05:46:55;;;;;;;0.10;0.10;;;;;;;14.54;100.00;100564.94;5112697;28;20053;-44
2023/09/20 05:49:22;;;;;;;0.10;0.10;;;;;;;14.53;100.00;100569.28;5113147;28;20020;-43
2023/09/20 05:51:50;;;;;;;0.20;0.20;;;;;;;14.56;100.00;100560.66;5113333;28;20043;-39
2023/09/20 05:54:19;;;;;;;0.10;0.10;;;;;;;14.60;100.00;100559.81;5112528;28;20024;-42
2023/09/20 05:56:45;;;;;;;0.10;0.10;;;;;;;14.59;100.00;100555.47;5112981;28;20039;-44
2023/09/20 05:59:10;;;;;;;0.10;0.10;;;;;;;14.63;100.00;100559.84;5113407;28;20036;-45
2023/09/20 06:01:39;;;;;;;0.10;0.10;;;;;;;14.68;100.00;100568.59;5112354;28;20020;-43
2023/09/20 06:04:07;;;;;;;0.10;0.10;;;;;;;14.72;100.00;100574.63;5113372;28;20034;-39
2023/09/20 06:06:33;;;;;;;0.10;0.10;;;;;;;14.74;100.00;100575.53;5112054;28;20023;-43
2023/09/20 06:08:58;;;;;;;0.10;0.10;;;;;;;14.77;100.00;100568.66;5113176;28;20020;-41
2023/09/20 06:11:25;;;;;;;0.10;0.10;;;;;;;14.81;100.00;100562.63;5113063;28;20026;-43
2023/09/20 06:13:51;;;;;;;0.10;0.10;;;;;;;14.86;100.00;100556.59;5112542;28;20034;-45
2023/09/20 06:16:17;;;;;;;0.10;0.10;;;;;;;14.90;100.00;100553.16;5112669;28;20502;-42
2023/09/20 06:18:42;;;;;;;0.10;0.10;;;;;;;14.95;100.00;100557.53;5113082;28;20024;-44
2023/09/20 06:21:08;;;;;;;0.10;0.10;;;;;;;14.99;100.00;100558.44;5112203;28;20501;-42
2023/09/20 06:23:34;;;;;;;0.10;0.10;;;;;;;15.04;100.00;100555.84;5112925;28;20028;-44
2023/09/20 06:26:12;;;;;;;0.10;0.10;;;;;;;15.07;100.00;100554.16;5112982;28;20039;-41
2023/09/20 06:28:42;;;;;;;0.10;0.10;;;;;;;15.12;100.00;100549.84;5112303;28;20030;-44
2023/09/20 06:31:15;;;;;;;0.10;0.10;;;;;;;15.15;100.00;100559.38;5113027;28;20473;-43
2023/09/20 06:33:42;;;;;;;0.10;0.10;;;;;;;15.21;100.00;100548.16;5112944;28;20032;-43
2023/09/20 06:36:08;;;;;;;0.10;0.10;;;;;;;15.25;100.00;100561.19;5112281;28;20051;-46
2023/09/20 06:38:36;;;;;;;0.10;0.10;;;;;;;15.28;100.00;100565.53;5113501;28;20077;-43
2023/09/20 06:41:01;;;;;;;0.10;0.10;;;;;;;15.32;100.00;100564.66;5116872;28;20055;-43
2023/09/20 06:43:27;;;;;;;0.10;0.10;;;;;;;15.34;100.00;100570.75;5115781;28;20059;-41
2023/09/20 06:45:53;;;;;;;0.10;0.10;;;;;;;15.38;100.00;100562.13;5116805;28;20019;-41
2023/09/20 06:48:22;;;;;;;0.10;0.10;;;;;;;15.43;100.00;100564.75;5116382;28;20077;-45
2023/09/20 06:50:55;;;;;;;0.10;0.10;;;;;;;15.51;100.00;100562.19;5116102;28;20048;-45
2023/09/20 06:53:23;;;;;;;0.10;0.10;;;;;;;15.61;100.00;100558.78;5116598;28;20167;-45
2023/09/20 06:55:49;;;;;;;0.10;0.10;;;;;;;15.75;100.00;100564.00;5115872;28;20043;-44
2023/09/20 06:58:14;;;;;;;0.10;0.10;;;;;;;15.86;100.00;100567.53;5116464;28;20027;-44
2023/09/20 07:00:40;;;;;;;0.10;0.10;;;;;;;15.98;100.00;100569.31;5116636;28;20031;-44
2023/09/20 07:03:05;;;;;;;0.10;0.10;;;;;;;16.10;100.00;100569.34;5115636;28;20031;-41
2023/09/20 07:05:31;;;;;;;0.00;0.00;;;;;;;16.16;100.00;100562.44;5116085;28;20020;-44
2023/09/20 07:08:00;;;;;;;0.10;0.10;;;;;;;16.15;100.00;100576.28;5116472;28;20119;-41
2023/09/20 07:10:28;;;;;;;0.10;0.10;;;;;;;16.13;100.00;100568.50;5115183;28;20474;-45
2023/09/20 07:12:54;;;;;;;0.10;0.10;;;;;;;16.13;100.00;100573.69;5116388;28;20027;-47
2023/09/20 07:15:20;;;;;;;0.10;0.10;;;;;;;16.13;100.00;100566.75;5115874;28;20513;-48
2023/09/20 07:17:58;;;;;;;0.10;0.10;;;;;;;16.13;100.00;100558.94;5115478;28;20031;-47
2023/09/20 07:20:28;;;;;;;0.10;0.10;;;;;;;16.20;100.00;100558.97;5115957;28;20028;-46
2023/09/20 07:22:53;;;;;;;0.10;0.10;;;;;;;16.25;100.00;100559.84;5116269;28;20019;-44
2023/09/20 07:25:21;;;;;;;0.10;0.10;;;;;;;16.30;100.00;100560.72;5115055;28;20034;-45
2023/09/20 07:27:47;;;;;;;0.10;0.10;;;;;;;16.35;100.00;100558.13;5116013;28;20015;-46
2023/09/20 07:30:17;;;;;;;0.10;0.10;;;;;;;16.38;100.00;100568.53;5115847;28;20462;-48
2023/09/20 07:32:44;;;;;;;0.10;0.10;;;;;;;16.41;100.00;100568.50;5115068;28;20496;-44
2023/09/20 07:37:57;;;;;;;0.10;0.10;;;;;;;16.57;100.00;100554.66;5114997;28;20588;-44
2023/09/20 07:40:28;;;;;;;0.10;0.10;;;;;;;16.72;100.00;100565.94;5115358;28;20534;-43
2023/09/20 07:42:59;;;;;;;0.10;0.10;;;;;;;16.88;100.00;100559.84;5115712;28;20478;-44
2023/09/20 07:45:26;;;;;;;0.10;0.10;;;;;;;16.95;100.00;100560.72;5114806;28;20114;-44
2023/09/20 07:47:51;;;;;;;0.10;0.10;;;;;;;17.06;100.00;100571.16;5115848;28;20106;-43
2023/09/20 07:50:17;;;;;;;0.10;0.10;;;;;;;17.08;100.00;100570.28;5114959;28;20032;-44
2023/09/20 07:52:42;;;;;;;0.10;0.10;;;;;;;17.18;100.00;100562.44;5114807;28;20069;-43
2023/09/20 07:55:11;;;;;;;0.05;0.05;;;;;;;17.29;100.00;100565.91;5115509;28;20031;-43
2023/09/20 07:57:38;;;;;;;0.10;0.10;;;;;;;17.33;100.00;100556.34;5115233;28;20040;-42
2023/09/20 08:00:10;;;;;;;0.10;0.10;;;;;;;17.28;100.00;100559.81;5114930;28;20031;-42
2023/09/20 08:02:37;;;;;;;0.10;0.10;;;;;;;17.35;100.00;100555.47;5115240;28;20031;-42
2023/09/20 08:05:02;;;;;;;0.10;0.10;;;;;;;17.44;100.00;100554.53;5115542;28;20506;-43
2023/09/20 08:07:27;;;;;;;0.00;0.00;;;;;;;17.43;100.00;100558.06;5114145;28;20024;-43
2023/09/20 08:09:53;;;;;;;0.10;0.10;;;;;;;17.50;100.00;100569.31;5115073;28;20031;-45
2023/09/20 08:12:18;;;;;;;0.10;0.10;;;;;;;17.44;100.00;100555.44;5115184;28;20020;-44
2023/09/20 08:14:43;;;;;;;0.08;0.08;;;;;;;17.35;100.00;100545.03;5114893;28;20023;-43
2023/09/20 08:19:53;;;;;;;0.10;0.10;;;;;;;17.50;100.00;100566.72;5115175;28;20072;-44
2023/09/20 08:22:20;;;;;;;0.10;0.10;;;;;;;17.48;100.00;100568.44;5113987;28;20420;-52
2023/09/20 09:00:32;;;;;;;0.00;0.00;;;;;;;18.73;100.00;100568.59;5114090;28;20082;-47
2023/09/20 09:02:58;;;;;;;0.10;0.10;;;;;;;18.83;100.00;100576.34;5112796;28;20059;-46
2023/09/20 09:05:27;;;;;;;0.10;0.10;;;;;;;18.89;100.00;100584.13;5114106;28;20028;-47
2023/09/20 09:07:53;;;;;;;0.00;0.00;;;;;;;19.10;100.00;100566.56;5114131;28;20047;-44
2023/09/20 09:10:19;;;;;;;0.10;0.10;;;;;;;19.19;100.00;100563.84;5113316;28;20020;-47
2023/09/20 09:12:45;;;;;;;0.10;0.10;;;;;;;19.27;100.00;100569.84;5113918;28;20423;-47
2023/09/20 09:15:12;;;;;;;0.00;0.00;;;;;;;19.10;99.36;100577.00;5114005;28;20034;-46
2023/09/20 09:17:38;;;;;;;;;;;;;;;19.25;100.00;100566.41;5113503;28;20027;-47
2023/09/20 09:20:05;;;;;;;0.03;0.03;;;;;;;19.06;100.00;100577.03;5113870;28;19912;-45
2023/09/20 09:22:34;;;;;;;0.10;0.10;;;;;;;18.97;100.00;100573.66;5113542;28;20035;-47
2023/09/20 09:24:59;;;;;;;0.03;0.03;;;;;;;18.99;100.00;100570.16;5113245;28;20023;-46
2023/09/20 09:27:24;;;;;;;0.00;0.00;;;;;;;18.89;100.00;100568.47;5113498;28;20085;-48
2023/09/20 09:29:50;;;;;;;0.00;0.00;;;;;;;18.90;100.00;100571.09;5113706;28;20550;-47
2023/09/20 09:32:15;;;;;;;0.03;0.03;;;;;;;18.90;100.00;100570.19;5112657;28;20032;-47
2023/09/20 09:34:43;;;;;;;0.00;0.00;;;;;;;18.96;100.00;100564.94;5113766;28;20061;-47
2023/09/20 09:37:10;;;;;;;0.00;0.00;;;;;;;19.03;100.00;100571.84;5113469;28;20029;-48
2023/09/20 09:39:36;;;;;;;0.00;0.00;;;;;;;19.10;100.00;100563.94;5112717;28;20031;-47
2023/09/20 09:42:02;;;;;;;0.10;0.10;;;;;;;19.15;100.00;100557.78;5113789;28;20020;-47
2023/09/20 09:44:28;;;;;;;0.00;0.00;;;;;;;19.25;100.00;100561.19;5112624;28;20543;-49
2023/09/20 09:46:56;;;;;;;0.00;0.00;;;;;;;19.38;99.23;100547.06;5113388;28;20056;-46
2023/09/20 09:49:24;;;;;;;0.00;0.00;;;;;;;19.51;98.30;100552.13;5113188;28;20020;-43
2023/09/20 09:51:51;;;;;;;0.00;0.00;;;;;;;19.54;96.60;100539.06;5112584;28;20051;-42
2023/09/20 09:54:18;;;;;;;0.03;0.03;;;;;;;19.86;97.20;100548.25;5113321;28;20035;-41
2023/09/20 09:56:44;;;;;;;0.00;0.00;;;;;;;19.89;94.68;100549.06;5113235;28;20050;-43
2023/09/20 09:59:10;;;;;;;0.00;0.00;;;;;;;19.97;94.88;100541.09;5112591;28;20101;-45
2023/09/20 10:01:37;;;;;;;0.00;0.00;;;;;;;19.99;92.26;100536.72;5113025;28;20079;-44
2023/09/20 10:04:13;;;;;;;0.10;0.10;;;;;;;19.88;93.31;100531.66;5113235;28;20030;-45
2023/09/20 10:06:44;;;;;;;0.00;0.00;;;;;;;20.13;93.87;100541.78;5112660;28;20065;-42
2023/09/20 10:09:11;;;;;;;0.03;0.03;;;;;;;20.55;92.06;100533.25;5113305;28;20028;-45
2023/09/20 10:11:37;;;;;;;0.00;0.00;;;;;;;20.72;89.28;100536.50;5113397;28;20382;-46
2023/09/20 10:14:07;;;;;;;0.00;0.00;;;;;;;20.84;88.81;100538.03;5115926;28;20124;-46
2023/09/20 10:16:34;;;;;;;0.00;0.00;;;;;;;20.95;87.86;100545.66;5117023;28;20038;-44
2023/09/20 10:19:01;;;;;;;0.00;0.00;;;;;;;20.98;86.45;100532.53;5117641;28;20023;-44
2023/09/20 10:21:30;;;;;;;0.10;0.10;;;;;;;20.92;87.29;100527.41;5116384;28;20039;-43
2023/09/20 10:24:00;;;;;;;0.00;0.00;;;;;;;21.13;88.04;100527.88;5117516;28;20026;-46
2023/09/20 10:26:26;;;;;;;0.00;0.00;;;;;;;21.25;84.73;100532.88;5116891;28;20420;-46
2023/09/20 10:28:58;;;;;;;0.00;0.00;;;;;;;21.32;83.43;100524.00;5116448;28;20456;-43
2023/09/20 10:31:26;;;;;;;0.00;0.00;;;;;;;21.59;84.62;100520.88;5117077;28;20030;-45
2023/09/20 10:33:54;;;;;;;0.00;0.00;;;;;;;21.59;81.99;100524.38;5116398;28;20016;-41
2023/09/20 10:36:24;;;;;;;0.00;0.00;;;;;;;21.51;80.86;100534.97;5116818;28;20047;-44
2023/09/20 10:39:19;;;;;;;0.00;0.00;;;;;;;21.47;81.80;100524.56;5117012;28;20451;-46
2023/09/20 10:41:46;;;;;;;0.00;0.00;;;;;;;21.49;79.80;100520.19;5116164;28;20032;-46
2023/09/20 10:44:29;;;;;;;0.00;0.00;;;;;;;21.65;79.40;100510.25;5116839;28;20032;-41
2023/09/20 10:46:59;;;;;;;0.00;0.00;;;;;;;21.70;78.28;100506.66;5117021;28;20032;-44
2023/09/20 10:49:53;;;;;;;0.00;0.00;;;;;;;21.94;77.84;100493.00;5116208;28;20027;-46
2023/09/20 10:52:30;;;;;;;0.00;0.00;;;;;;;21.79;77.11;100494.22;5106552;28;20036;-44
2023/09/20 10:55:17;;;;;;;0.00;0.00;;;;;;;21.64;79.33;100496.28;5115998;28;20062;-46
2023/09/20 10:57:43;;;;;;;;;;;;;;;21.75;79.44;100492.56;5116844;28;20063;-45
2023/09/20 11:00:09;;;;;;;0.00;0.00;;;;;;;21.25;77.56;100501.41;5116650;28;19954;-46
2023/09/20 11:02:37;;;;;;;0.00;0.00;;;;;;;21.01;80.50;100495.78;5115464;28;20055;-44
2023/09/20 11:05:06;;;;;;;0.00;0.00;;;;;;;20.93;79.53;100492.47;5116419;28;20508;-45
2023/09/20 11:07:32;;;;;;;0.00;0.00;;;;;;;20.77;80.59;100491.88;5116315;28;20650;-44
2023/09/20 11:09:58;;;;;;;0.00;0.00;;;;;;;20.66;82.46;100494.66;5115785;28;20030;-45
2023/09/20 11:12:23;;;;;;;0.00;0.00;;;;;;;20.87;83.04;100492.56;5116049;28;20023;-44
2023/09/20 11:14:51;;;;;;;0.10;0.10;;;;;;;20.95;82.69;100490.66;5116322;28;20115;-43
2023/09/20 11:17:18;;;;;;;0.00;0.00;;;;;;;20.94;81.80;100478.47;5115370;28;20038;-43
2023/09/20 11:19:44;;;;;;;0.00;0.00;;;;;;;20.92;81.37;100485.50;5116044;28;20032;-45
2023/09/20 11:22:09;;;;;;;0.00;0.00;;;;;;;20.87;82.18;100487.34;5116273;28;20019;-45
2023/09/20 11:24:40;;;;;;;0.00;0.00;;;;;;;20.98;83.84;100484.50;5114283;28;20056;-45
2023/09/20 11:27:05;;;;;;;0.00;0.00;;;;;;;20.96;82.68;100481.91;5116167;28;20023;-42
2023/09/20 11:29:34;;;;;;;0.00;0.00;;;;;;;21.14;83.47;100485.94;5115711;28;20384;-46
2023/09/20 11:31:59;;;;;;;0.00;0.00;;;;;;;21.45;84.54;100479.19;5115189;28;20369;-46
2023/09/20 11:34:28;;;;;;;0.00;0.00;;;;;;;21.80;77.65;100474.97;5115709;28;20486;-46
2023/09/20 11:36:57;;;;;;;0.00;0.00;;;;;;;21.75;75.79;100482.06;5115932;28;20024;-44
2023/09/20 11:39:29;;;;;;;0.00;0.00;;;;;;;21.71;75.34;100481.28;5114820;28;20062;-46
2023/09/20 11:42:01;;;;;;;0.00;0.00;;;;;;;21.73;76.21;100489.09;5115725;28;20098;-47
2023/09/20 11:44:27;;;;;;;0.00;0.00;;;;;;;21.73;76.61;100486.47;5114581;28;20466;-45
2023/09/20 11:46:54;;;;;;;0.00;0.00;;;;;;;21.85;74.60;100491.44;5115944;28;20086;-44
2023/09/20 11:49:20;;;;;;;0.00;0.00;;;;;;;21.68;74.65;100481.34;5115620;28;20023;-42
2023/09/20 11:51:45;;;;;;;0.00;0.00;;;;;;;21.59;77.43;100487.66;5115072;28;20084;-46
2023/09/20 11:54:11;;;;;;;0.00;0.00;;;;;;;21.54;76.40;100485.13;5115677;28;20476;-43
2023/09/20 11:56:37;;;;;;;0.00;0.00;;;;;;;21.17;76.44;100490.25;5114972;28;20059;-47
2023/09/20 11:59:09;;;;;;;0.00;0.00;;;;;;;21.05;80.25;100492.22;5114899;28;20024;-46
2023/09/20 12:01:40;;;;;;;0.00;0.00;;;;;;;21.25;80.30;100493.56;5115328;28;20032;-45